Time;durP1;ratioP1;P1;durP2;ratioP2;P2;SDS_P1;SDS_P2;PMS_P1;PMS_P2;Temp;Humidity;BMP_temperature;BMP_pressure;BME280_temperature;BME280_humidity;BME280_pressure;Samples;Min_cycle;Max_cycle;Signal;HPM_P1;HPM_P2
2023/09/15 00:02:25;;;;;;;3.47;3.00;;;;;;;;;;5013591;28;20553;-53
2023/09/15 00:04:52;;;;;;;3.10;2.80;;;;;;;;;;5014033;28;20272;-53
2023/09/15 00:07:18;;;;;;;3.47;3.07;;;;;;;;;;5013481;28;20605;-52
2023/09/15 00:09:44;;;;;;;3.90;3.20;;;;;;;;;;5012560;28;20206;-53
2023/09/15 00:12:10;;;;;;;3.50;3.17;;;;;;;;;;5013414;28;20217;-53
2023/09/15 00:14:38;;;;;;;3.37;3.07;;;;;;;;;;5012652;28;20236;-53
2023/09/15 00:17:05;;;;;;;3.20;2.97;;;;;;;;;;5013692;28;20197;-53
2023/09/15 00:19:31;;;;;;;3.97;3.03;;;;;;;;;;5013537;28;20201;-53
2023/09/15 00:21:58;;;;;;;3.27;2.97;;;;;;;;;;5013655;28;20209;-53
2023/09/15 00:24:24;;;;;;;3.37;3.07;;;;;;;;;;5013135;28;20521;-52
2023/09/15 00:26:52;;;;;;;3.37;3.00;;;;;;;;;;5011550;28;20285;-52
2023/09/15 00:29:18;;;;;;;3.40;3.10;;;;;;;;;;5007727;28;20285;-52
2023/09/15 00:31:45;;;;;;;4.20;3.03;;;;;;;;;;5013729;28;20285;-53
2023/09/15 00:34:14;;;;;;;3.40;3.10;;;;;;;;;;5013274;28;20198;-50
2023/09/15 00:36:40;;;;;;;6.03;3.13;;;;;;;;;;5012994;28;20213;-49
2023/09/15 00:39:07;;;;;;;3.70;3.37;;;;;;;;;;5013432;28;20197;-50
2023/09/15 00:41:33;;;;;;;3.33;3.03;;;;;;;;;;5013094;28;20280;-50
2023/09/15 00:43:59;;;;;;;4.03;3.00;;;;;;;;;;5013294;28;20272;-49
2023/09/15 00:46:26;;;;;;;3.47;2.90;;;;;;;;;;5012921;28;20660;-49
2023/09/15 00:48:52;;;;;;;3.50;3.20;;;;;;;;;;5013384;28;20206;-49
2023/09/15 00:51:21;;;;;;;3.20;2.90;;;;;;;;;;5013258;28;20205;-49
2023/09/15 00:53:47;;;;;;;3.50;3.20;;;;;;;;;;5012822;28;20279;-49
2023/09/15 00:56:14;;;;;;;3.87;3.13;;;;;;;;;;5012991;28;20210;-49
2023/09/15 00:58:40;;;;;;;4.53;3.73;;;;;;;;;;5012752;28;20288;-49
2023/09/15 01:01:06;;;;;;;3.53;3.07;;;;;;;;;;5013015;28;20248;-49
2023/09/15 01:03:35;;;;;;;5.37;4.03;;;;;;;;;;5012776;28;20189;-49
2023/09/15 01:06:02;;;;;;;3.80;3.20;;;;;;;;;;5012869;28;20207;-49
2023/09/15 01:08:28;;;;;;;3.63;3.23;;;;;;;;;;5012703;28;20208;-49
2023/09/15 01:10:54;;;;;;;4.33;3.37;;;;;;;;;;5012624;28;20280;-49
2023/09/15 01:13:22;;;;;;;3.23;2.93;;;;;;;;;;5012970;28;20252;-49
2023/09/15 01:15:51;;;;;;;3.70;3.40;;;;;;;;;;5012464;28;20576;-49
2023/09/15 01:18:20;;;;;;;3.40;3.10;;;;;;;;;;5012778;28;20296;-49
2023/09/15 01:20:56;;;;;;;4.07;3.40;;;;;;;;;;5012569;28;20276;-50
2023/09/15 01:23:32;;;;;;;3.40;3.10;;;;;;;;;;5012430;28;20203;-50
2023/09/15 01:26:16;;;;;;;3.27;2.77;;;;;;;;;;5011538;28;20288;-50
2023/09/15 01:28:54;;;;;;;2.93;2.73;;;;;;;;;;5012291;28;20263;-50
2023/09/15 01:31:22;;;;;;;3.20;3.00;;;;;;;;;;5012379;28;20209;-49
2023/09/15 01:33:49;;;;;;;3.60;3.30;;;;;;;;;;5012234;28;20317;-49
2023/09/15 01:36:15;;;;;;;3.00;2.80;;;;;;;;;;5012123;28;20217;-49
2023/09/15 01:38:41;;;;;;;3.13;2.87;;;;;;;;;;5011757;28;20336;-49
2023/09/15 01:41:07;;;;;;;3.10;2.80;;;;;;;;;;5012212;28;20212;-49
2023/09/15 01:43:33;;;;;;;3.77;2.90;;;;;;;;;;5012080;28;20197;-49
2023/09/15 01:45:59;;;;;;;3.30;2.97;;;;;;;;;;5012017;28;20193;-49
2023/09/15 01:48:26;;;;;;;4.27;3.00;;;;;;;;;;5011939;28;20821;-49
2023/09/15 01:50:53;;;;;;;3.10;2.77;;;;;;;;;;5011535;28;20679;-49
2023/09/15 01:53:19;;;;;;;3.37;3.03;;;;;;;;;;5012057;28;20316;-50
2023/09/15 01:55:45;;;;;;;3.83;2.60;;;;;;;;;;5011890;28;20308;-50
2023/09/15 01:58:11;;;;;;;3.07;2.73;;;;;;;;;;5011881;28;20679;-50
2023/09/15 02:00:37;;;;;;;3.30;3.00;;;;;;;;;;5011646;28;20201;-49
2023/09/15 02:06:14;;;;;;;2.93;2.63;;;;;;;;;;5011658;28;20619;-50
2023/09/15 02:08:40;;;;;;;3.13;2.67;;;;;;;;;;5011579;28;20205;-50
2023/09/15 02:11:06;;;;;;;4.73;2.90;;;;;;;;;;5011782;28;20231;-49
2023/09/15 02:13:36;;;;;;;3.50;2.73;;;;;;;;;;5011338;28;20567;-49
2023/09/15 02:16:02;;;;;;;3.33;2.60;;;;;;;;;;5011985;28;20206;-49
2023/09/15 02:18:29;;;;;;;3.00;2.70;;;;;;;;;;5011629;28;20205;-50
2023/09/15 02:20:55;;;;;;;3.00;2.70;;;;;;;;;;5011686;28;20217;-49
2023/09/15 02:23:22;;;;;;;2.67;2.47;;;;;;;;;;5011712;28;20212;-50
2023/09/15 02:25:48;;;;;;;3.60;2.73;;;;;;;;;;5011371;28;20232;-49
2023/09/15 02:28:15;;;;;;;4.03;3.00;;;;;;;;;;5011561;28;20202;-50
2023/09/15 02:30:41;;;;;;;2.73;2.53;;;;;;;;;;5011205;28;20443;-49
2023/09/15 02:33:07;;;;;;;3.00;2.60;;;;;;;;;;5011414;28;20228;-49
2023/09/15 02:35:33;;;;;;;2.87;2.57;;;;;;;;;;5011122;28;20213;-50
2023/09/15 02:37:59;;;;;;;2.67;2.40;;;;;;;;;;5011010;28;20233;-50
2023/09/15 02:40:26;;;;;;;4.17;2.60;;;;;;;;;;5011378;28;20204;-50
2023/09/15 02:42:53;;;;;;;3.70;2.50;;;;;;;;;;5011046;28;20631;-50
2023/09/15 02:45:19;;;;;;;3.20;2.60;;;;;;;;;;5011591;28;20204;-50
2023/09/15 02:47:45;;;;;;;2.87;2.60;;;;;;;;;;5010946;28;20243;-49
2023/09/15 02:50:11;;;;;;;3.00;2.70;;;;;;;;;;5011175;28;20193;-49
2023/09/15 02:52:37;;;;;;;2.60;2.40;;;;;;;;;;5011140;28;20225;-49
2023/09/15 02:55:08;;;;;;;5.07;2.50;;;;;;;;;;5011427;28;20678;-50
2023/09/15 02:57:35;;;;;;;2.50;2.30;;;;;;;;;;5011381;28;20205;-49
2023/09/15 03:00:02;;;;;;;2.77;2.47;;;;;;;;;;5010964;28;20201;-50
2023/09/15 03:02:28;;;;;;;2.60;2.40;;;;;;;;;;5011137;28;20702;-50
2023/09/15 03:04:54;;;;;;;3.60;2.70;;;;;;;;;;5011049;28;20205;-50
2023/09/15 03:07:20;;;;;;;4.13;2.67;;;;;;;;;;5011299;28;20202;-50
2023/09/15 03:09:46;;;;;;;2.87;2.63;;;;;;;;;;5010913;28;20204;-50
2023/09/15 03:12:12;;;;;;;2.77;2.57;;;;;;;;;;5010963;28;20713;-49
2023/09/15 03:14:40;;;;;;;2.77;2.50;;;;;;;;;;5010736;28;20223;-49
2023/09/15 03:17:06;;;;;;;2.70;2.50;;;;;;;;;;5010946;28;20241;-49
2023/09/15 03:19:32;;;;;;;2.97;2.53;;;;;;;;;;5010845;28;20664;-49
2023/09/15 03:21:58;;;;;;;3.20;2.60;;;;;;;;;;5010949;28;20202;-50
2023/09/15 03:24:24;;;;;;;2.60;2.40;;;;;;;;;;5010932;28;20228;-50
2023/09/15 03:26:51;;;;;;;2.77;2.30;;;;;;;;;;5010868;28;20264;-49
2023/09/15 03:29:17;;;;;;;3.03;2.43;;;;;;;;;;5010959;28;20189;-50
2023/09/15 03:31:44;;;;;;;3.10;2.57;;;;;;;;;;5010799;28;20292;-49
2023/09/15 03:34:10;;;;;;;4.27;3.00;;;;;;;;;;5010777;28;20316;-49
2023/09/15 03:36:36;;;;;;;3.10;2.60;;;;;;;;;;5010493;28;20300;-49
2023/09/15 03:39:03;;;;;;;4.10;2.70;;;;;;;;;;5011012;28;20212;-49
2023/09/15 03:41:30;;;;;;;2.83;2.63;;;;;;;;;;5010817;28;20221;-49
2023/09/15 03:43:56;;;;;;;2.70;2.50;;;;;;;;;;5010922;28;20190;-49
2023/09/15 03:46:22;;;;;;;3.57;2.67;;;;;;;;;;5010783;28;20199;-49
2023/09/15 03:48:49;;;;;;;4.77;2.80;;;;;;;;;;5009630;28;20233;-49
2023/09/15 03:51:15;;;;;;;3.20;2.80;;;;;;;;;;5014374;28;20284;-49
2023/09/15 03:53:41;;;;;;;3.60;2.70;;;;;;;;;;5014125;28;20225;-50
2023/09/15 03:56:08;;;;;;;2.87;2.67;;;;;;;;;;5014252;28;20201;-49
2023/09/15 03:58:34;;;;;;;2.60;2.40;;;;;;;;;;5014089;28;20284;-50
2023/09/15 04:01:00;;;;;;;3.53;2.20;;;;;;;;;;5013957;28;20643;-49
2023/09/15 04:03:26;;;;;;;2.80;2.60;;;;;;;;;;5013966;28;20553;-49
2023/09/15 04:05:53;;;;;;;3.57;2.40;;;;;;;;;;5013856;28;20202;-49
2023/09/15 04:08:19;;;;;;;8.30;3.00;;;;;;;;;;5014096;28;20225;-49
2023/09/15 04:10:45;;;;;;;4.73;2.77;;;;;;;;;;5013543;28;20201;-49
2023/09/15 04:13:11;;;;;;;3.33;2.60;;;;;;;;;;5013649;28;20233;-49
2023/09/15 04:15:39;;;;;;;7.07;3.00;;;;;;;;;;5013692;28;20202;-49
2023/09/15 04:18:08;;;;;;;3.13;2.93;;;;;;;;;;5014013;28;20288;-49
2023/09/15 04:20:34;;;;;;;3.60;3.00;;;;;;;;;;5014032;28;20240;-49
2023/09/15 04:23:01;;;;;;;4.07;3.10;;;;;;;;;;5013546;28;20197;-50
2023/09/15 04:25:27;;;;;;;3.10;2.80;;;;;;;;;;5013506;28;20573;-49
2023/09/15 04:27:54;;;;;;;2.70;2.50;;;;;;;;;;5013477;28;20205;-49
2023/09/15 04:30:20;;;;;;;3.70;2.90;;;;;;;;;;5013702;28;20392;-49
2023/09/15 04:32:48;;;;;;;3.53;2.70;;;;;;;;;;5013402;28;20785;-50
2023/09/15 04:35:14;;;;;;;2.97;2.73;;;;;;;;;;5013166;28;20316;-49
2023/09/15 04:37:40;;;;;;;3.30;3.00;;;;;;;;;;5013084;28;20611;-49
2023/09/15 04:40:08;;;;;;;4.03;2.87;;;;;;;;;;5013439;28;20223;-49
2023/09/15 04:42:34;;;;;;;4.20;3.10;;;;;;;;;;5013278;28;20202;-49
2023/09/15 04:45:02;;;;;;;3.37;2.73;;;;;;;;;;5012840;28;20220;-49
2023/09/15 04:47:29;;;;;;;3.03;2.70;;;;;;;;;;5013100;28;20209;-50
2023/09/15 04:49:56;;;;;;;3.47;3.00;;;;;;;;;;5013041;28;20210;-49
2023/09/15 04:52:22;;;;;;;4.37;3.23;;;;;;;;;;5013100;28;20253;-49
2023/09/15 04:54:48;;;;;;;3.80;3.10;;;;;;;;;;5013155;28;20202;-49
2023/09/15 04:57:15;;;;;;;3.33;3.03;;;;;;;;;;5012558;28;20198;-49
2023/09/15 04:59:41;;;;;;;3.03;2.73;;;;;;;;;;5012483;28;20293;-49
2023/09/15 05:02:07;;;;;;;2.90;2.60;;;;;;;;;;5012882;28;20197;-49
2023/09/15 05:04:33;;;;;;;3.53;3.23;;;;;;;;;;5012949;28;20233;-50
2023/09/15 05:07:00;;;;;;;3.50;3.20;;;;;;;;;;5012506;28;20193;-49
2023/09/15 05:09:26;;;;;;;3.43;3.00;;;;;;;;;;5012761;28;20209;-50
2023/09/15 05:11:53;;;;;;;4.00;3.00;;;;;;;;;;5012253;28;20584;-50
2023/09/15 05:14:22;;;;;;;3.67;2.33;;;;;;;;;;5012384;28;20316;-49
2023/09/15 05:16:48;;;;;;;3.40;2.70;;;;;;;;;;5012244;28;20293;-50
2023/09/15 05:19:14;;;;;;;2.70;2.50;;;;;;;;;;5011933;28;20202;-49
2023/09/15 05:21:40;;;;;;;6.33;3.00;;;;;;;;;;5012243;28;20247;-49
2023/09/15 05:24:07;;;;;;;4.13;2.90;;;;;;;;;;5012043;28;20194;-49
2023/09/15 05:26:33;;;;;;;5.90;3.17;;;;;;;;;;5012252;28;20201;-49
2023/09/15 05:28:59;;;;;;;5.03;3.10;;;;;;;;;;5011905;28;20208;-49
2023/09/15 05:31:26;;;;;;;4.07;2.87;;;;;;;;;;5011724;28;20303;-49
2023/09/15 05:33:53;;;;;;;4.83;2.77;;;;;;;;;;5011556;28;20260;-49
2023/09/15 05:36:19;;;;;;;4.37;3.00;;;;;;;;;;5011910;28;20224;-49
2023/09/15 05:38:46;;;;;;;6.50;2.73;;;;;;;;;;5011528;28;20573;-49
2023/09/15 05:41:12;;;;;;;3.77;3.10;;;;;;;;;;5011931;28;20201;-49
2023/09/15 05:43:39;;;;;;;5.20;2.80;;;;;;;;;;5011204;28;20279;-49
2023/09/15 05:46:05;;;;;;;3.70;3.27;;;;;;;;;;5011870;28;20276;-48
2023/09/15 05:48:33;;;;;;;5.57;3.17;;;;;;;;;;5011653;28;20205;-49
2023/09/15 05:50:59;;;;;;;3.67;3.17;;;;;;;;;;5011498;28;20267;-49
2023/09/15 05:53:25;;;;;;;4.77;3.50;;;;;;;;;;5011494;28;20287;-49
2023/09/15 05:55:51;;;;;;;5.43;3.30;;;;;;;;;;5011333;28;20212;-48
2023/09/15 05:58:17;;;;;;;4.57;3.17;;;;;;;;;;5011746;28;20189;-49
2023/09/15 06:00:43;;;;;;;3.37;3.07;;;;;;;;;;5011223;28;20198;-49
2023/09/15 06:03:09;;;;;;;4.27;3.10;;;;;;;;;;5011289;28;20193;-49
2023/09/15 06:05:37;;;;;;;3.87;2.70;;;;;;;;;;5011328;28;20193;-48
2023/09/15 06:08:03;;;;;;;3.77;2.93;;;;;;;;;;5010003;28;20209;-49
2023/09/15 06:10:29;;;;;;;4.93;2.93;;;;;;;;;;5011435;28;20197;-49
2023/09/15 06:12:55;;;;;;;3.47;2.90;;;;;;;;;;5010427;28;20217;-49
2023/09/15 06:15:21;;;;;;;2.70;2.47;;;;;;;;;;5011207;28;20259;-49
2023/09/15 06:17:48;;;;;;;3.20;2.90;;;;;;;;;;5011277;28;20252;-49
2023/09/15 06:20:14;;;;;;;5.70;3.33;;;;;;;;;;5011030;28;20201;-49
2023/09/15 06:22:41;;;;;;;5.77;3.33;;;;;;;;;;5010886;28;20457;-49
2023/09/15 06:25:08;;;;;;;5.43;3.20;;;;;;;;;;5010582;28;20292;-48
2023/09/15 06:27:34;;;;;;;4.67;2.73;;;;;;;;;;5010711;28;20250;-48
2023/09/15 06:30:00;;;;;;;4.60;3.20;;;;;;;;;;5010523;28;20269;-48
2023/09/15 06:32:26;;;;;;;4.27;3.23;;;;;;;;;;5010902;28;20273;-48
2023/09/15 06:34:52;;;;;;;3.90;2.90;;;;;;;;;;5011080;28;20217;-50
2023/09/15 06:37:18;;;;;;;6.20;3.57;;;;;;;;;;5009177;28;20729;-50
2023/09/15 06:39:45;;;;;;;5.17;3.00;;;;;;;;;;5010810;28;20201;-49
2023/09/15 06:42:11;;;;;;;3.23;2.80;;;;;;;;;;5010691;28;20288;-49
2023/09/15 06:44:37;;;;;;;4.60;3.03;;;;;;;;;;5010696;28;20225;-49
2023/09/15 06:47:04;;;;;;;5.70;3.07;;;;;;;;;;5011029;28;20252;-50
2023/09/15 06:49:31;;;;;;;5.03;3.10;;;;;;;;;;5010927;28;20193;-50
2023/09/15 06:51:57;;;;;;;3.73;2.93;;;;;;;;;;5010744;28;20197;-50
2023/09/15 06:54:23;;;;;;;3.43;2.87;;;;;;;;;;5010224;28;20221;-50
2023/09/15 06:56:51;;;;;;;5.10;3.00;;;;;;;;;;5010846;28;20237;-50
2023/09/15 06:59:17;;;;;;;6.20;3.30;;;;;;;;;;5010894;28;20201;-50
2023/09/15 07:01:43;;;;;;;6.50;3.20;;;;;;;;;;5010899;28;20193;-50
2023/09/15 07:04:11;;;;;;;4.67;2.80;;;;;;;;;;5010690;28;20277;-50
2023/09/15 07:06:38;;;;;;;4.33;2.83;;;;;;;;;;5010390;28;20229;-50
2023/09/15 07:09:04;;;;;;;4.87;3.00;;;;;;;;;;5010763;28;20564;-50
2023/09/15 07:11:30;;;;;;;4.23;2.70;;;;;;;;;;5010657;28;20201;-50
2023/09/15 07:13:58;;;;;;;4.57;2.73;;;;;;;;;;5010518;28;20302;-50
2023/09/15 07:16:24;;;;;;;6.20;3.20;;;;;;;;;;5010539;28;20208;-50
2023/09/15 07:18:50;;;;;;;5.23;2.90;;;;;;;;;;5010066;28;20751;-50
2023/09/15 07:21:16;;;;;;;7.70;3.23;;;;;;;;;;5010689;28;20292;-51
2023/09/15 07:23:42;;;;;;;6.37;3.17;;;;;;;;;;5011119;28;20284;-51
2023/09/15 07:26:08;;;;;;;4.77;3.20;;;;;;;;;;5014614;28;20201;-56
2023/09/15 07:28:34;;;;;;;6.30;2.63;;;;;;;;;;5014288;28;20627;-51
2023/09/15 07:31:04;;;;;;;4.50;2.83;;;;;;;;;;5013883;28;20248;-53
2023/09/15 07:33:30;;;;;;;4.90;2.60;;;;;;;;;;5014183;28;20237;-52
2023/09/15 07:35:58;;;;;;;4.37;2.90;;;;;;;;;;5013936;28;20231;-54
2023/09/15 07:38:24;;;;;;;6.23;2.67;;;;;;;;;;5013589;28;20311;-53
2023/09/15 07:40:50;;;;;;;5.00;2.80;;;;;;;;;;5018399;28;20220;-54
2023/09/15 07:43:16;;;;;;;4.27;2.73;;;;;;;;;;5032568;28;20201;-54
2023/09/15 07:45:42;;;;;;;4.07;2.70;;;;;;;;;;5016491;28;20205;-54
2023/09/15 07:48:09;;;;;;;3.43;2.67;;;;;;;;;;5013445;28;20282;-54
2023/09/15 07:50:35;;;;;;;4.40;2.70;;;;;;;;;;5013744;28;20286;-54
2023/09/15 07:53:01;;;;;;;5.20;2.70;;;;;;;;;;5013631;28;21100;-53
2023/09/15 07:55:27;;;;;;;6.50;2.77;;;;;;;;;;5013219;28;20215;-54
2023/09/15 07:57:53;;;;;;;4.70;2.50;;;;;;;;;;5013598;28;20561;-54
2023/09/15 08:00:19;;;;;;;5.97;2.93;;;;;;;;;;5013549;28;20204;-53
2023/09/15 08:02:45;;;;;;;6.63;2.60;;;;;;;;;;5013421;28;20257;-53
2023/09/15 08:05:13;;;;;;;6.40;2.90;;;;;;;;;;5013640;28;20197;-54
2023/09/15 08:07:40;;;;;;;5.73;2.77;;;;;;;;;;5012433;28;20689;-53
2023/09/15 08:10:06;;;;;;;4.73;2.57;;;;;;;;;;5013629;28;20288;-54
2023/09/15 08:12:32;;;;;;;5.57;2.53;;;;;;;;;;5013256;28;20200;-53
2023/09/15 08:14:58;;;;;;;3.80;2.60;;;;;;;;;;5013210;28;20231;-54
2023/09/15 08:17:25;;;;;;;4.70;2.50;;;;;;;;;;5013392;28;20635;-53
2023/09/15 08:19:51;;;;;;;4.63;2.67;;;;;;;;;;5012848;28;20215;-54
2023/09/15 08:22:19;;;;;;;5.97;2.60;;;;;;;;;;5013549;28;20197;-53
2023/09/15 08:24:47;;;;;;;5.33;2.70;;;;;;;;;;5013043;28;20658;-54
2023/09/15 08:27:13;;;;;;;6.87;2.90;;;;;;;;;;5013045;28;20201;-53
2023/09/15 08:29:39;;;;;;;5.33;2.67;;;;;;;;;;5013074;28;20201;-53
2023/09/15 08:32:06;;;;;;;6.20;2.33;;;;;;;;;;5013015;28;20201;-53
2023/09/15 08:34:32;;;;;;;4.20;2.33;;;;;;;;;;5012438;28;20218;-53
2023/09/15 08:36:58;;;;;;;4.67;2.50;;;;;;;;;;5012481;28;20640;-53
2023/09/15 08:39:25;;;;;;;6.57;2.60;;;;;;;;;;5013124;28;20232;-53
2023/09/15 08:41:54;;;;;;;4.63;2.77;;;;;;;;;;5012579;28;20301;-53
2023/09/15 08:44:21;;;;;;;4.73;2.50;;;;;;;;;;5012639;28;20726;-53
2023/09/15 08:46:48;;;;;;;7.47;3.10;;;;;;;;;;5012591;28;20190;-52
2023/09/15 08:49:15;;;;;;;3.73;2.27;;;;;;;;;;5012704;28;20532;-52
2023/09/15 08:51:42;;;;;;;7.03;2.73;;;;;;;;;;5012403;28;20665;-52
2023/09/15 08:54:08;;;;;;;4.37;2.83;;;;;;;;;;5012432;28;20282;-52
2023/09/15 08:56:36;;;;;;;4.70;2.60;;;;;;;;;;5012983;28;20201;-51
2023/09/15 08:59:03;;;;;;;5.07;2.70;;;;;;;;;;5012177;28;20574;-51
2023/09/15 09:01:30;;;;;;;6.13;2.77;;;;;;;;;;5012554;28;20544;-52
2023/09/15 09:03:56;;;;;;;3.20;2.30;;;;;;;;;;5011693;28;20190;-52
2023/09/15 09:06:23;;;;;;;3.80;2.50;;;;;;;;;;5012196;28;20200;-52
2023/09/15 09:08:50;;;;;;;2.67;2.20;;;;;;;;;;5012082;28;20636;-52
2023/09/15 09:11:16;;;;;;;3.97;2.70;;;;;;;;;;5012389;28;20312;-52
2023/09/15 09:13:49;;;;;;;3.40;2.40;;;;;;;;;;5012325;28;20513;-52
2023/09/15 09:16:16;;;;;;;4.23;2.60;;;;;;;;;;5012083;28;20267;-51
2023/09/15 09:18:42;;;;;;;5.70;3.20;;;;;;;;;;5011322;28;20205;-51
2023/09/15 09:21:08;;;;;;;7.37;3.00;;;;;;;;;;5012089;28;20199;-52
2023/09/15 09:23:34;;;;;;;3.97;2.63;;;;;;;;;;5012270;28;20209;-52
2023/09/15 09:26:00;;;;;;;6.37;3.00;;;;;;;;;;5011883;28;20229;-51
2023/09/15 09:28:27;;;;;;;5.07;2.63;;;;;;;;;;5011966;28;20220;-52
2023/09/15 09:30:55;;;;;;;4.30;2.77;;;;;;;;;;5011240;28;20282;-52
2023/09/15 09:33:21;;;;;;;4.97;2.80;;;;;;;;;;5011908;28;20236;-52
2023/09/15 09:35:48;;;;;;;6.47;3.00;;;;;;;;;;5011777;28;20257;-52
2023/09/15 09:38:15;;;;;;;2.83;2.40;;;;;;;;;;5007770;28;20284;-53
2023/09/15 09:40:41;;;;;;;7.17;3.10;;;;;;;;;;5011427;28;20668;-51
2023/09/15 09:43:07;;;;;;;5.10;3.37;;;;;;;;;;5011658;28;20205;-51
2023/09/15 09:45:34;;;;;;;6.00;2.77;;;;;;;;;;5011856;28;20186;-51
2023/09/15 09:48:02;;;;;;;4.87;3.13;;;;;;;;;;5010857;28;20271;-53
2023/09/15 09:50:28;;;;;;;6.03;2.80;;;;;;;;;;5011946;28;20598;-53
2023/09/15 09:52:54;;;;;;;6.07;2.80;;;;;;;;;;4993937;28;20661;-53
2023/09/15 09:55:21;;;;;;;5.63;3.00;;;;;;;;;;4988263;28;20669;-52
2023/09/15 09:57:47;;;;;;;4.23;2.70;;;;;;;;;;4991727;28;20227;-53
2023/09/15 10:00:18;;;;;;;6.67;2.93;;;;;;;;;;4992376;28;20429;-53
2023/09/15 10:02:45;;;;;;;5.53;2.93;;;;;;;;;;4992005;28;20209;-52
2023/09/15 10:05:12;;;;;;;5.17;2.47;;;;;;;;;;4992065;28;20253;-52
2023/09/15 10:07:39;;;;;;;3.73;2.90;;;;;;;;;;4992043;28;20199;-53
2023/09/15 10:10:07;;;;;;;5.00;2.70;;;;;;;;;;4991748;28;20286;-52
2023/09/15 10:12:33;;;;;;;4.93;2.80;;;;;;;;;;4991649;28;20204;-53
2023/09/15 10:15:00;;;;;;;5.90;2.67;;;;;;;;;;4991554;28;20273;-52
2023/09/15 10:17:27;;;;;;;4.67;2.83;;;;;;;;;;4991414;28;20242;-52
2023/09/15 10:19:53;;;;;;;4.20;2.53;;;;;;;;;;4991143;28;20661;-52
2023/09/15 10:22:21;;;;;;;7.33;3.33;;;;;;;;;;4991593;28;20206;-52
2023/09/15 10:24:54;;;;;;;3.70;2.50;;;;;;;;;;4991408;28;20190;-51
2023/09/15 10:27:20;;;;;;;5.60;2.77;;;;;;;;;;4991559;28;20198;-51
2023/09/15 10:29:47;;;;;;;8.10;2.87;;;;;;;;;;4991499;28;20208;-52
2023/09/15 10:32:16;;;;;;;5.73;2.90;;;;;;;;;;4991228;28;20269;-52
2023/09/15 10:34:43;;;;;;;5.67;2.80;;;;;;;;;;4991019;28;20235;-52
2023/09/15 10:37:10;;;;;;;5.67;2.50;;;;;;;;;;4990935;28;20240;-51
2023/09/15 10:39:38;;;;;;;6.30;3.00;;;;;;;;;;4996696;28;20259;-52
2023/09/15 10:42:07;;;;;;;4.63;2.27;;;;;;;;;;5011059;28;20214;-51
2023/09/15 10:44:33;;;;;;;3.70;2.50;;;;;;;;;;5011074;28;20194;-51
2023/09/15 10:47:05;;;;;;;4.67;2.80;;;;;;;;;;5010391;28;20290;-51
2023/09/15 10:49:31;;;;;;;3.93;2.20;;;;;;;;;;5008525;28;20202;-52
2023/09/15 10:51:59;;;;;;;4.67;3.00;;;;;;;;;;5010355;28;20204;-51
2023/09/15 10:54:26;;;;;;;4.77;2.60;;;;;;;;;;5010311;28;20537;-52
2023/09/15 10:56:54;;;;;;;7.70;3.10;;;;;;;;;;5010292;28;20550;-52
2023/09/15 10:59:21;;;;;;;4.27;2.87;;;;;;;;;;5014016;28;20205;-51
2023/09/15 11:01:47;;;;;;;4.70;2.73;;;;;;;;;;5014420;28;20197;-51
2023/09/15 11:04:17;;;;;;;4.80;2.60;;;;;;;;;;5014138;28;20194;-52
2023/09/15 11:06:45;;;;;;;4.83;2.90;;;;;;;;;;5014767;28;20286;-52
2023/09/15 11:09:11;;;;;;;4.33;2.30;;;;;;;;;;5014568;28;20201;-52
2023/09/15 11:11:37;;;;;;;3.50;2.27;;;;;;;;;;5014462;28;20617;-53
2023/09/15 11:14:05;;;;;;;4.53;2.27;;;;;;;;;;5014575;28;20227;-53
2023/09/15 11:16:32;;;;;;;3.37;2.50;;;;;;;;;;5014690;28;20205;-52
2023/09/15 11:19:02;;;;;;;5.53;2.40;;;;;;;;;;5014300;28;20205;-52
2023/09/15 11:21:29;;;;;;;4.07;2.77;;;;;;;;;;5014378;28;20224;-52
2023/09/15 11:23:56;;;;;;;4.13;2.50;;;;;;;;;;5014238;28;20193;-52
2023/09/15 11:26:23;;;;;;;3.30;2.30;;;;;;;;;;5014458;28;20204;-52
2023/09/15 11:28:52;;;;;;;4.10;2.30;;;;;;;;;;5014380;28;20193;-52
2023/09/15 11:31:19;;;;;;;3.07;2.20;;;;;;;;;;5014527;28;20276;-52
2023/09/15 11:33:46;;;;;;;2.67;2.20;;;;;;;;;;5014011;28;20295;-52
2023/09/15 11:36:13;;;;;;;5.27;2.60;;;;;;;;;;5013975;28;20228;-52
2023/09/15 11:38:39;;;;;;;5.83;3.27;;;;;;;;;;5014015;28;20239;-52
2023/09/15 11:41:06;;;;;;;4.60;2.90;;;;;;;;;;5014254;28;20313;-52
2023/09/15 11:43:32;;;;;;;3.87;2.90;;;;;;;;;;5014236;28;20305;-52
2023/09/15 11:45:59;;;;;;;3.27;2.50;;;;;;;;;;5013968;28;20202;-52
2023/09/15 11:48:28;;;;;;;4.90;3.07;;;;;;;;;;5014002;28;20305;-51
2023/09/15 11:50:57;;;;;;;6.17;2.83;;;;;;;;;;5013898;28;20199;-51
2023/09/15 11:53:25;;;;;;;2.90;2.50;;;;;;;;;;5013775;28;20238;-51
2023/09/15 11:55:54;;;;;;;3.47;2.60;;;;;;;;;;5013899;28;20194;-51
2023/09/15 11:58:20;;;;;;;4.40;2.43;;;;;;;;;;5014113;28;20199;-51
2023/09/15 12:00:46;;;;;;;5.37;2.97;;;;;;;;;;5013763;28;20202;-51
2023/09/15 12:03:12;;;;;;;3.30;2.70;;;;;;;;;;5013441;28;20754;-51
2023/09/15 12:05:40;;;;;;;3.60;2.23;;;;;;;;;;5013610;28;20286;-52
2023/09/15 12:08:06;;;;;;;4.40;3.00;;;;;;;;;;5013650;28;20618;-52
2023/09/15 12:10:32;;;;;;;4.57;2.83;;;;;;;;;;5012747;28;20691;-52
2023/09/15 12:12:58;;;;;;;4.03;2.47;;;;;;;;;;5013315;28;20244;-52
2023/09/15 12:18:27;;;;;;;3.60;2.67;;;;;;;;;;5013179;28;20501;-52
2023/09/15 12:20:55;;;;;;;4.00;2.73;;;;;;;;;;5013352;28;20295;-52
2023/09/15 12:23:21;;;;;;;3.33;2.20;;;;;;;;;;5013062;28;20298;-52
2023/09/15 12:25:47;;;;;;;4.27;2.93;;;;;;;;;;5013158;28;20266;-52
2023/09/15 12:28:14;;;;;;;3.80;3.00;;;;;;;;;;5012943;28;20195;-52
2023/09/15 12:30:44;;;;;;;3.47;2.50;;;;;;;;;;5013145;28;20694;-51
2023/09/15 12:33:40;;;;;;;3.43;2.20;;;;;;;;;;5013254;28;20792;-51
2023/09/15 12:36:10;;;;;;;3.13;2.33;;;;;;;;;;4971662;28;20259;-52
2023/09/15 12:38:36;;;;;;;3.27;2.60;;;;;;;;;;5003622;28;20659;-52
2023/09/15 12:41:02;;;;;;;5.67;2.70;;;;;;;;;;5013138;28;20194;-52
2023/09/15 12:43:28;;;;;;;3.20;2.50;;;;;;;;;;5012766;28;20248;-51
2023/09/15 12:45:54;;;;;;;5.73;3.10;;;;;;;;;;5012970;28;20203;-51
2023/09/15 12:48:20;;;;;;;3.10;2.30;;;;;;;;;;5012739;28;20605;-51
2023/09/15 12:50:47;;;;;;;5.70;3.10;;;;;;;;;;5012785;28;20726;-52
2023/09/15 12:53:15;;;;;;;4.93;2.73;;;;;;;;;;5012759;28;20227;-52
2023/09/15 12:55:41;;;;;;;5.27;2.50;;;;;;;;;;5010953;28;20305;-51
2023/09/15 12:58:07;;;;;;;5.60;2.63;;;;;;;;;;5012513;28;20561;-52
2023/09/15 13:00:33;;;;;;;3.87;3.07;;;;;;;;;;5012463;28;20213;-51
2023/09/15 13:02:59;;;;;;;4.43;2.80;;;;;;;;;;5012439;28;20259;-51
2023/09/15 13:05:25;;;;;;;3.73;2.90;;;;;;;;;;5012564;28;20324;-51
2023/09/15 13:07:51;;;;;;;3.87;2.73;;;;;;;;;;5012555;28;20270;-51
2023/09/15 13:10:18;;;;;;;3.50;2.27;;;;;;;;;;5012899;28;20254;-52
2023/09/15 13:12:44;;;;;;;3.90;2.67;;;;;;;;;;5012660;28;20292;-51
2023/09/15 13:15:11;;;;;;;3.30;2.37;;;;;;;;;;5012736;28;20293;-51
2023/09/15 13:17:37;;;;;;;3.67;2.40;;;;;;;;;;5012631;28;20196;-52
2023/09/15 13:20:07;;;;;;;3.50;2.40;;;;;;;;;;5012751;28;20215;-51
2023/09/15 13:22:34;;;;;;;2.77;2.57;;;;;;;;;;5011833;28;20232;-52
2023/09/15 13:25:00;;;;;;;4.23;2.77;;;;;;;;;;5012855;28;20201;-53
2023/09/15 13:27:28;;;;;;;3.60;2.60;;;;;;;;;;5012483;28;20253;-53
2023/09/15 13:29:54;;;;;;;4.63;2.63;;;;;;;;;;5012489;28;20632;-52
2023/09/15 13:32:20;;;;;;;6.67;3.00;;;;;;;;;;5012409;28;20271;-51
2023/09/15 13:34:46;;;;;;;4.03;2.63;;;;;;;;;;5012317;28;20229;-51
2023/09/15 13:37:12;;;;;;;4.50;2.87;;;;;;;;;;5012178;28;20229;-51
2023/09/15 13:39:39;;;;;;;3.07;2.57;;;;;;;;;;5012219;28;20198;-53
2023/09/15 13:42:05;;;;;;;2.87;2.33;;;;;;;;;;5012438;28;20204;-52
2023/09/15 13:44:32;;;;;;;3.97;2.80;;;;;;;;;;5012243;28;20310;-51
2023/09/15 13:46:58;;;;;;;3.77;2.60;;;;;;;;;;5012248;28;20300;-51
2023/09/15 13:49:24;;;;;;;5.17;2.40;;;;;;;;;;5012144;28;20198;-51
2023/09/15 13:51:50;;;;;;;3.03;2.73;;;;;;;;;;5012278;28;20204;-51
2023/09/15 13:54:18;;;;;;;4.77;2.90;;;;;;;;;;5011992;28;20290;-51
2023/09/15 13:56:44;;;;;;;4.10;2.80;;;;;;;;;;5012000;28;20684;-51
2023/09/15 13:59:11;;;;;;;4.30;3.10;;;;;;;;;;5012018;28;20750;-51
2023/09/15 14:01:39;;;;;;;5.40;2.80;;;;;;;;;;5011810;28;20208;-51
2023/09/15 14:04:06;;;;;;;3.23;2.60;;;;;;;;;;5012213;28;20629;-52
2023/09/15 14:06:32;;;;;;;5.43;2.90;;;;;;;;;;5011952;28;20532;-51
2023/09/15 14:08:58;;;;;;;3.80;2.30;;;;;;;;;;5012032;28;20315;-52
2023/09/15 14:11:24;;;;;;;3.53;2.60;;;;;;;;;;5011794;28;20205;-52
2023/09/15 14:13:50;;;;;;;2.80;2.53;;;;;;;;;;5011881;28;20229;-52
2023/09/15 14:16:16;;;;;;;4.43;3.00;;;;;;;;;;5011977;28;20223;-52
2023/09/15 14:18:44;;;;;;;3.83;2.80;;;;;;;;;;5011641;28;20205;-52
2023/09/15 14:21:10;;;;;;;6.07;3.10;;;;;;;;;;5011669;28;20299;-51
2023/09/15 14:23:36;;;;;;;4.67;2.70;;;;;;;;;;5011509;28;20193;-52
2023/09/15 14:26:02;;;;;;;4.07;2.87;;;;;;;;;;5011714;28;20200;-52
2023/09/15 14:28:28;;;;;;;5.23;2.77;;;;;;;;;;5011503;28;20207;-52
2023/09/15 14:30:54;;;;;;;3.67;2.47;;;;;;;;;;5011649;28;20286;-51
2023/09/15 14:33:20;;;;;;;3.07;2.27;;;;;;;;;;5010957;28;20239;-52
2023/09/15 14:35:48;;;;;;;4.10;2.40;;;;;;;;;;5011290;28;20223;-52
2023/09/15 14:38:14;;;;;;;5.83;2.80;;;;;;;;;;5011392;28;20258;-52
2023/09/15 14:40:40;;;;;;;3.50;2.80;;;;;;;;;;5011237;28;20257;-52
2023/09/15 14:43:06;;;;;;;2.87;2.53;;;;;;;;;;5011211;28;20835;-52
2023/09/15 14:45:32;;;;;;;4.97;2.50;;;;;;;;;;5011339;28;20194;-51
2023/09/15 14:48:02;;;;;;;3.27;2.50;;;;;;;;;;5011403;28;20298;-52